Time;durP1;ratioP1;P1;durP2;ratioP2;P2;SDS_P1;SDS_P2;PMS_P1;PMS_P2;Temp;Humidity;BMP_temperature;BMP_pressure;BME280_temperature;BME280_humidity;BME280_pressure;Samples;Min_cycle;Max_cycle;Signal;HPM_P1;HPM_P2
2021/03/26 00:00:33;;;;;;;32.73;17.60;;;;;;;4.52;96.72;101235.13;4979282;28;20308;-72
2021/03/26 00:03:00;;;;;;;29.47;17.23;;;;;;;4.50;96.37;101238.53;4986005;28;20201;-73
2021/03/26 00:05:27;;;;;;;30.63;16.73;;;;;;;4.50;96.59;101243.69;4979449;28;20197;-72
2021/03/26 00:07:53;;;;;;;27.80;16.30;;;;;;;4.49;96.50;101236.81;4981839;28;20232;-74
2021/03/26 00:10:20;;;;;;;30.97;16.67;;;;;;;4.47;97.09;101244.53;4979085;28;20224;-73
2021/03/26 00:12:46;;;;;;;31.67;16.80;;;;;;;4.48;97.18;101237.66;4981297;28;20205;-73
2021/03/26 00:15:13;;;;;;;32.93;16.83;;;;;;;4.45;96.99;101238.50;4987580;28;20225;-73
2021/03/26 00:17:40;;;;;;;32.23;17.40;;;;;;;4.46;97.19;101234.19;4981779;28;20193;-72
2021/03/26 00:20:07;;;;;;;36.07;18.13;;;;;;;4.43;97.42;101227.25;4978371;28;20218;-73
2021/03/26 00:22:33;;;;;;;30.57;18.37;;;;;;;4.41;97.14;101228.97;4978549;28;20197;-73
2021/03/26 00:24:59;;;;;;;31.67;17.17;;;;;;;4.38;97.02;101217.75;4985407;28;20225;-73
2021/03/26 00:27:26;;;;;;;33.03;17.90;;;;;;;4.39;97.48;101219.50;4977877;28;20217;-73
2021/03/26 00:29:52;;;;;;;34.47;17.57;;;;;;;4.36;97.70;101207.41;4985936;28;20228;-72
2021/03/26 00:32:19;;;;;;;30.20;17.03;;;;;;;4.36;97.44;101208.28;4990937;28;20216;-73
2021/03/26 00:34:45;;;;;;;29.80;16.10;;;;;;;4.34;97.21;101211.69;4979115;28;20789;-71
2021/03/26 00:37:11;;;;;;;30.93;16.57;;;;;;;4.34;96.77;101220.34;4983326;28;20212;-73
2021/03/26 00:39:37;;;;;;;32.90;17.60;;;;;;;4.35;97.75;101216.03;4980412;28;20737;-72
2021/03/26 00:42:04;;;;;;;32.53;17.23;;;;;;;4.36;98.13;101228.94;4997402;28;20260;-73
2021/03/26 00:44:30;;;;;;;32.67;17.27;;;;;;;4.40;98.30;101222.09;4982154;28;20201;-74
2021/03/26 00:46:57;;;;;;;34.47;17.47;;;;;;;4.39;98.08;101222.94;4984308;28;20579;-73
2021/03/26 00:49:23;;;;;;;28.83;16.93;;;;;;;4.38;97.66;101225.50;4975667;28;20233;-72
2021/03/26 00:51:49;;;;;;;33.37;17.73;;;;;;;4.35;97.73;101229.78;4981917;28;20229;-72
2021/03/26 00:54:17;;;;;;;34.60;18.73;;;;;;;4.34;97.73;101229.78;4978554;28;20258;-73
2021/03/26 00:56:44;;;;;;;30.20;16.80;;;;;;;4.31;97.91;101228.03;4982627;28;20200;-72
2021/03/26 00:59:11;;;;;;;28.63;18.00;;;;;;;4.32;97.71;101223.72;4987169;28;20550;-73
2021/03/26 01:01:39;;;;;;;30.00;17.50;;;;;;;4.31;98.01;101224.56;4987876;28;20445;-71
2021/03/26 01:04:06;;;;;;;32.93;16.87;;;;;;;4.31;98.27;101220.28;4979857;28;20281;-70
2021/03/26 01:06:32;;;;;;;28.10;16.13;;;;;;;4.31;98.14;101225.47;4976677;28;20201;-72
2021/03/26 01:09:00;;;;;;;30.23;16.50;;;;;;;4.26;97.98;101221.97;5002223;28;20213;-71
2021/03/26 01:11:29;;;;;;;29.43;16.07;;;;;;;4.24;97.86;101220.22;4978477;28;20212;-71
2021/03/26 01:13:58;;;;;;;30.03;17.10;;;;;;;4.22;98.29;101225.38;4982852;28;20704;-73
2021/03/26 01:16:27;;;;;;;30.90;16.83;;;;;;;4.21;98.63;101218.47;4980496;28;20256;-73
2021/03/26 01:18:58;;;;;;;29.03;17.33;;;;;;;4.18;98.49;101219.28;4982494;28;20332;-71
2021/03/26 01:21:27;;;;;;;33.50;16.83;;;;;;;4.20;99.23;101218.47;4984006;28;20220;-73
2021/03/26 01:23:56;;;;;;;32.57;17.27;;;;;;;4.20;99.11;101218.47;4982285;28;20742;-72
2021/03/26 01:26:23;;;;;;;34.33;17.53;;;;;;;4.16;98.87;101221.00;4975020;28;20233;-70
2021/03/26 01:29:01;;;;;;;34.00;17.37;;;;;;;4.13;98.83;101223.56;4978874;28;20201;-71
2021/03/26 01:31:30;;;;;;;32.47;18.50;;;;;;;4.12;98.75;101211.50;4976115;28;20203;-74
2021/03/26 01:33:57;;;;;;;35.97;18.03;;;;;;;4.13;99.19;101215.84;4965874;28;20208;-73
2021/03/26 01:36:27;;;;;;;33.33;17.93;;;;;;;4.14;99.71;101208.94;4998228;28;20212;-71
2021/03/26 01:38:54;;;;;;;34.07;17.87;;;;;;;4.16;99.32;101209.81;4975705;28;20209;-73
2021/03/26 01:41:33;;;;;;;31.60;18.40;;;;;;;4.17;99.31;101216.72;4980605;28;20206;-73
2021/03/26 01:43:59;;;;;;;32.40;18.17;;;;;;;4.16;99.41;101212.41;4989331;28;20212;-71
2021/03/26 01:46:26;;;;;;;34.70;18.60;;;;;;;4.14;99.29;101208.94;4982075;28;20212;-71
2021/03/26 01:48:57;;;;;;;35.43;18.90;;;;;;;4.14;99.10;101208.94;4979601;28;20582;-73
2021/03/26 01:51:28;;;;;;;36.10;20.67;;;;;;;4.15;99.71;101203.81;4995191;28;20240;-72
2021/03/26 01:53:55;;;;;;;37.87;21.33;;;;;;;4.14;99.24;101204.63;4989131;28;20298;-70
2021/03/26 01:56:22;;;;;;;37.90;21.20;;;;;;;4.14;99.00;101206.38;4979182;28;20248;-70
2021/03/26 01:59:09;;;;;;;40.43;20.00;;;;;;;4.12;99.14;101210.66;4975174;28;20280;-73
2021/03/26 02:01:39;;;;;;;37.37;21.10;;;;;;;4.12;99.00;101206.34;4974072;28;20205;-72
2021/03/26 02:04:07;;;;;;;38.53;20.93;;;;;;;4.11;99.09;101203.75;4995110;28;20211;-72
2021/03/26 02:06:39;;;;;;;42.03;21.10;;;;;;;4.06;98.92;101205.41;4963147;28;20711;-73
2021/03/26 02:09:08;;;;;;;37.87;20.43;;;;;;;4.06;99.16;101200.25;4977951;28;20229;-73
2021/03/26 02:11:40;;;;;;;43.07;22.07;;;;;;;4.01;99.09;101204.50;4994337;28;20237;-73
2021/03/26 02:14:15;;;;;;;37.80;20.67;;;;;;;3.97;98.77;101199.34;4982666;28;20204;-73
2021/03/26 02:16:42;;;;;;;42.43;20.83;;;;;;;3.95;98.94;101200.16;4982858;28;20741;-73
2021/03/26 02:19:34;;;;;;;37.13;21.73;;;;;;;3.91;98.98;101198.41;4980328;28;20221;-73
2021/03/26 02:22:01;;;;;;;43.30;21.47;;;;;;;3.89;99.26;101207.84;4996698;28;20692;-73
2021/03/26 02:24:29;;;;;;;34.73;18.40;;;;;;;3.83;99.30;101205.19;4980682;28;20199;-72
2021/03/26 02:26:59;;;;;;;35.87;20.50;;;;;;;3.78;99.11;101211.16;4981238;28;20256;-73
2021/03/26 02:29:31;;;;;;;36.83;19.80;;;;;;;3.72;98.85;101213.66;4976434;28;20228;-72
2021/03/26 02:32:28;;;;;;;36.43;19.53;;;;;;;3.68;99.09;101221.38;4986212;28;20236;-72
2021/03/26 02:35:10;;;;;;;34.07;20.60;;;;;;;3.63;99.73;101215.28;4991875;28;20229;-70
2021/03/26 02:37:38;;;;;;;35.20;19.73;;;;;;;3.57;99.39;101219.53;4985278;28;20219;-73
2021/03/26 02:40:08;;;;;;;38.77;19.73;;;;;;;3.55;99.92;101217.75;4980630;28;20303;-73
2021/03/26 02:42:36;;;;;;;33.30;19.43;;;;;;;3.51;100.00;101216.00;5001475;28;20633;-73
2021/03/26 02:45:09;;;;;;;32.27;18.07;;;;;;;3.45;99.96;101216.78;4981583;28;20209;-73
2021/03/26 02:47:53;;;;;;;32.53;17.40;;;;;;;3.42;100.00;101216.75;4981119;28;20292;-73
2021/03/26 02:50:58;;;;;;;37.03;18.87;;;;;;;3.39;100.00;101216.69;4975597;28;20371;-73
2021/03/26 02:53:52;;;;;;;35.97;17.13;;;;;;;3.32;100.00;101214.88;4986232;28;20744;-73
2021/03/26 02:56:25;;;;;;;28.77;17.70;;;;;;;3.24;100.00;101219.94;4982052;28;20228;-72
2021/03/26 02:59:02;;;;;;;31.90;17.23;;;;;;;3.17;100.00;101216.41;4980885;28;20604;-71
2021/03/26 03:01:32;;;;;;;33.40;18.13;;;;;;;3.11;100.00;101206.00;4975057;28;20661;-73
2021/03/26 03:04:05;;;;;;;34.93;18.20;;;;;;;3.06;100.00;101210.25;4987830;28;20379;-73
2021/03/26 03:06:36;;;;;;;33.20;18.00;;;;;;;2.97;100.00;101208.41;4972274;28;20454;-72
2021/03/26 03:09:23;;;;;;;34.97;18.50;;;;;;;2.90;100.00;101197.97;4983054;28;20256;-72
2021/03/26 03:11:56;;;;;;;36.70;18.73;;;;;;;2.86;100.00;101211.69;4986650;28;20224;-71
2021/03/26 03:14:27;;;;;;;33.10;18.60;;;;;;;2.77;100.00;101208.09;4998198;28;20553;-74
2021/03/26 03:16:59;;;;;;;36.60;18.10;;;;;;;2.71;100.00;101199.41;4994669;28;20670;-71
2021/03/26 03:19:36;;;;;;;30.73;17.27;;;;;;;2.65;100.00;101200.19;4981316;28;20229;-73
2021/03/26 03:22:09;;;;;;;33.10;17.97;;;;;;;2.58;100.00;101195.78;4989905;28;20256;-73
2021/03/26 03:24:40;;;;;;;35.37;17.73;;;;;;;2.53;100.00;101198.28;4979902;28;20203;-73
2021/03/26 03:27:22;;;;;;;34.80;18.13;;;;;;;2.47;100.00;101193.91;4974556;28;20201;-73
2021/03/26 03:29:55;;;;;;;31.90;17.67;;;;;;;2.43;100.00;101197.28;4977650;28;20666;-70
2021/03/26 03:32:40;;;;;;;32.23;17.67;;;;;;;2.34;100.00;101197.16;4985693;28;20754;-73
2021/03/26 03:35:17;;;;;;;32.43;18.67;;;;;;;2.31;100.00;101196.22;4984304;28;20214;-73
2021/03/26 03:37:54;;;;;;;33.70;16.50;;;;;;;2.26;100.00;101193.56;4985587;28;20582;-71
2021/03/26 03:40:26;;;;;;;27.70;16.23;;;;;;;2.19;100.00;101192.59;4981446;28;20388;-69
2021/03/26 03:43:02;;;;;;;31.40;16.80;;;;;;;2.15;100.00;101200.25;4991940;28;20204;-73
2021/03/26 03:45:37;;;;;;;31.33;17.47;;;;;;;2.14;100.00;101196.78;4994321;28;20201;-70
2021/03/26 03:48:12;;;;;;;32.70;17.03;;;;;;;2.10;100.00;101189.00;4985056;28;20645;-72
2021/03/26 03:50:43;;;;;;;32.07;17.40;;;;;;;2.04;100.00;101188.06;4982507;28;20217;-72
2021/03/26 03:53:21;;;;;;;32.20;17.73;;;;;;;2.01;100.00;101188.00;5005724;28;20248;-71
2021/03/26 03:56:04;;;;;;;34.30;17.93;;;;;;;1.98;100.00;101198.22;4987062;28;20576;-73
2021/03/26 03:58:37;;;;;;;31.50;16.67;;;;;;;1.96;100.00;101196.47;4983031;28;20200;-73
2021/03/26 04:01:12;;;;;;;38.90;18.07;;;;;;;1.92;100.00;101190.41;4986500;28;20442;-73
2021/03/26 04:03:43;;;;;;;33.97;18.17;;;;;;;1.93;100.00;101199.84;4979494;28;20577;-73
2021/03/26 04:06:14;;;;;;;31.43;16.60;;;;;;;1.93;100.00;101189.53;4980275;28;20197;-73
2021/03/26 04:08:43;;;;;;;32.00;16.57;;;;;;;1.91;100.00;101195.50;4994419;28;20297;-73
2021/03/26 04:11:15;;;;;;;28.33;16.03;;;;;;;1.88;100.00;101202.34;4988952;28;20672;-71
2021/03/26 04:13:46;;;;;;;38.70;19.37;;;;;;;1.89;100.00;101204.06;4980797;28;20836;-73
2021/03/26 04:16:18;;;;;;;35.93;19.30;;;;;;;1.90;100.00;101207.50;4991266;28;20680;-72
2021/03/26 04:18:51;;;;;;;36.97;18.17;;;;;;;1.87;100.00;101207.44;4982531;28;20260;-74
2021/03/26 04:21:28;;;;;;;35.20;18.60;;;;;;;1.83;100.00;101210.78;4983881;28;20233;-73
2021/03/26 04:24:21;;;;;;;32.47;18.70;;;;;;;1.81;100.00;101209.88;4974800;28;20662;-73
2021/03/26 04:27:13;;;;;;;34.67;17.83;;;;;;;1.80;100.00;101208.16;4983387;28;20275;-72
2021/03/26 04:30:00;;;;;;;34.27;18.03;;;;;;;1.78;100.00;101210.72;4981847;28;20231;-73
2021/03/26 04:32:37;;;;;;;35.53;18.93;;;;;;;1.78;100.00;101204.72;4980956;28;20615;-73
2021/03/26 04:35:05;;;;;;;34.70;17.83;;;;;;;1.80;100.00;101211.59;4978877;28;20225;-72
2021/03/26 04:37:38;;;;;;;35.77;18.73;;;;;;;1.77;100.00;101211.53;4982119;28;20227;-73
2021/03/26 04:40:14;;;;;;;37.83;19.00;;;;;;;1.76;100.00;101211.50;4979950;28;20776;-73
2021/03/26 04:42:50;;;;;;;32.13;17.07;;;;;;;1.75;100.00;101214.94;4983198;28;20201;-73
2021/03/26 04:45:23;;;;;;;40.27;20.27;;;;;;;1.73;100.00;101212.31;4981346;28;20210;-71
2021/03/26 04:48:07;;;;;;;33.53;17.73;;;;;;;1.73;100.00;101216.59;4985622;28;20621;-73
2021/03/26 04:51:01;;;;;;;33.63;17.33;;;;;;;1.72;100.00;101222.56;4997678;28;20690;-71
2021/03/26 04:53:55;;;;;;;35.87;18.90;;;;;;;1.69;100.00;101220.81;4998968;28;20305;-74
2021/03/26 04:56:24;;;;;;;39.83;19.03;;;;;;;1.69;100.00;101220.81;4997596;28;20255;-72
2021/03/26 04:59:23;;;;;;;29.57;18.00;;;;;;;1.68;100.00;101235.38;4986017;28;20226;-71
2021/03/26 05:02:02;;;;;;;38.30;18.70;;;;;;;1.67;100.00;101225.03;4982582;28;20212;-73
2021/03/26 05:04:33;;;;;;;34.30;18.07;;;;;;;1.66;100.00;101231.91;4979200;28;20217;-73
2021/03/26 05:07:04;;;;;;;39.97;18.80;;;;;;;1.62;100.00;101232.69;4975634;28;20567;-73
2021/03/26 05:09:35;;;;;;;35.00;18.43;;;;;;;1.59;100.00;101227.47;4976838;28;20294;-72
2021/03/26 05:12:07;;;;;;;34.60;17.60;;;;;;;1.64;100.00;101227.56;4977334;28;20268;-73
2021/03/26 05:14:45;;;;;;;36.17;18.33;;;;;;;1.57;100.00;101236.88;4977407;28;20584;-72
2021/03/26 05:17:20;;;;;;;30.67;16.40;;;;;;;1.54;100.00;101229.06;4980477;28;20204;-74
2021/03/26 05:20:34;;;;;;;36.13;17.90;;;;;;;1.53;100.00;101227.38;4973102;28;20302;-72
2021/03/26 05:23:25;;;;;;;33.83;16.97;;;;;;;1.52;100.00;101229.03;4972024;28;20212;-73
2021/03/26 05:26:33;;;;;;;33.40;16.57;;;;;;;1.51;100.00;101235.03;4959387;28;20191;-73
2021/03/26 05:29:21;;;;;;;34.57;17.03;;;;;;;1.54;100.00;101231.66;4960087;28;20252;-72
2021/03/26 05:31:59;;;;;;;36.00;18.30;;;;;;;1.55;100.00;101241.09;4974540;28;20717;-72
2021/03/26 05:34:51;;;;;;;33.90;17.10;;;;;;;1.50;100.00;101247.84;4980534;28;20231;-73
2021/03/26 05:37:25;;;;;;;29.47;16.47;;;;;;;1.48;100.00;101252.09;4998119;28;20291;-73
2021/03/26 05:40:36;;;;;;;35.00;17.07;;;;;;;1.50;100.00;101253.84;4974439;28;20531;-73
2021/03/26 05:43:39;;;;;;;35.73;17.47;;;;;;;1.58;100.00;101251.44;4986143;28;20316;-71
2021/03/26 05:46:30;;;;;;;30.90;16.03;;;;;;;1.57;100.00;101254.00;4994532;28;20237;-71
2021/03/26 05:49:35;;;;;;;31.13;15.93;;;;;;;1.61;100.00;101256.63;4997620;28;20307;-72
2021/03/26 05:52:24;;;;;;;32.10;16.73;;;;;;;1.66;100.00;101256.75;4990649;28;20205;-72
2021/03/26 05:55:16;;;;;;;29.50;16.43;;;;;;;1.70;100.00;101258.53;4985890;28;20324;-72
2021/03/26 05:57:53;;;;;;;36.23;17.33;;;;;;;1.75;100.00;101259.50;4977018;28;20299;-73
2021/03/26 06:00:45;;;;;;;30.53;16.50;;;;;;;1.82;100.00;101252.78;4999355;28;20231;-73
2021/03/26 06:03:50;;;;;;;33.33;16.70;;;;;;;1.89;100.00;101246.91;4979905;28;20196;-71
2021/03/26 06:07:25;;;;;;;34.60;17.50;;;;;;;1.98;100.00;101254.81;5002366;28;20591;-73
2021/03/26 06:10:31;;;;;;;39.77;19.13;;;;;;;2.10;100.00;101258.47;4995966;28;20259;-74
2021/03/26 06:13:44;;;;;;;52.47;25.70;;;;;;;2.25;100.00;101253.56;4981308;28;20346;-71
2021/03/26 06:16:44;;;;;;;46.23;21.90;;;;;;;2.44;100.00;101250.47;4977686;28;20220;-74
2021/03/26 06:19:55;;;;;;;72.00;32.67;;;;;;;2.67;100.00;101251.72;4979405;28;20253;-71
2021/03/26 06:23:11;;;;;;;67.03;31.30;;;;;;;2.86;100.00;101253.75;4977813;28;20764;-72
2021/03/26 06:26:20;;;;;;;58.00;26.33;;;;;;;3.07;100.00;101248.06;4994143;28;20421;-72
2021/03/26 06:28:53;;;;;;;147.47;57.20;;;;;;;3.29;100.00;101250.91;4997920;28;20550;-74
2021/03/26 06:31:40;;;;;;;74.10;29.37;;;;;;;3.50;100.00;101250.34;4994287;28;20518;-74
2021/03/26 06:35:00;;;;;;;88.23;35.83;;;;;;;3.71;100.00;101249.75;4983247;28;20689;-73
2021/03/26 06:37:39;;;;;;;63.30;27.87;;;;;;;3.90;100.00;101251.69;4983365;28;20323;-74
2021/03/26 06:40:31;;;;;;;73.03;31.70;;;;;;;4.07;100.00;101261.34;4981216;28;20229;-74
2021/03/26 06:43:10;;;;;;;67.93;29.53;;;;;;;4.27;100.00;101257.25;4986336;28;20283;-74
2021/03/26 06:45:45;;;;;;;63.17;27.80;;;;;;;4.43;100.00;101260.84;4982877;28;20332;-72
2021/03/26 06:48:39;;;;;;;66.80;28.30;;;;;;;4.54;100.00;101258.38;4979802;28;20278;-74
2021/03/26 06:51:19;;;;;;;69.13;29.13;;;;;;;4.68;100.00;101255.91;4983550;28;20304;-73
2021/03/26 06:53:57;;;;;;;101.13;41.73;;;;;;;4.81;100.00;101255.13;4982743;28;20204;-74
2021/03/26 06:56:43;;;;;;;130.97;56.03;;;;;;;5.04;100.00;101244.09;4989327;28;20231;-72
2021/03/26 06:59:48;;;;;;;105.00;41.10;;;;;;;5.18;100.00;101247.63;4980270;28;20273;-71
2021/03/26 07:02:36;;;;;;;119.60;48.03;;;;;;;5.41;100.00;101247.75;4974089;28;20220;-72
2021/03/26 07:05:21;;;;;;;114.33;49.47;;;;;;;5.64;100.00;101241.81;4977862;28;20211;-74
2021/03/26 07:08:07;;;;;;;103.13;43.27;;;;;;;5.81;100.00;101242.75;4986895;28;20197;-71
2021/03/26 07:10:58;;;;;;;72.87;34.03;;;;;;;5.98;100.00;101244.56;4979055;28;20736;-70
2021/03/26 07:13:38;;;;;;;84.63;35.07;;;;;;;6.20;100.00;101242.91;4981164;28;20297;-72
2021/03/26 07:16:27;;;;;;;85.13;33.27;;;;;;;6.41;100.00;101244.66;4980543;28;20221;-73
2021/03/26 07:19:10;;;;;;;73.57;33.33;;;;;;;6.65;100.00;101241.22;4979547;28;20681;-74
2021/03/26 07:21:59;;;;;;;79.60;34.87;;;;;;;6.92;100.00;101239.47;4983309;28;20213;-74
2021/03/26 07:24:53;;;;;;;85.10;34.40;;;;;;;7.10;100.00;101242.00;4979717;28;20297;-74
2021/03/26 07:27:28;;;;;;;77.93;33.63;;;;;;;7.28;98.32;101240.25;4985144;28;20208;-73
2021/03/26 07:30:19;;;;;;;82.20;35.37;;;;;;;7.46;96.45;101250.59;4983184;28;20735;-74
2021/03/26 07:33:10;;;;;;;74.90;33.90;;;;;;;7.73;95.83;101253.94;4972449;28;20253;-74
2021/03/26 07:35:49;;;;;;;81.63;31.93;;;;;;;7.92;94.50;101252.13;4975955;28;20307;-73
2021/03/26 07:38:27;;;;;;;72.30;31.67;;;;;;;8.01;93.55;101256.41;4981422;28;20207;-73
2021/03/26 07:41:04;;;;;;;66.93;28.83;;;;;;;8.14;94.38;101251.13;4980925;28;20221;-73
2021/03/26 07:43:49;;;;;;;60.53;29.23;;;;;;;8.26;92.34;101260.56;4997723;28;20220;-71
2021/03/26 07:46:42;;;;;;;53.07;25.60;;;;;;;8.42;91.10;101260.47;4977897;28;20718;-73
2021/03/26 07:49:48;;;;;;;54.40;25.80;;;;;;;8.52;90.63;101267.38;4980737;28;20232;-73
2021/03/26 07:52:22;;;;;;;52.13;26.57;;;;;;;8.60;90.09;101262.97;4944983;28;20227;-73
2021/03/26 07:55:04;;;;;;;46.57;22.67;;;;;;;8.66;88.84;101268.13;4977453;28;20277;-73
2021/03/26 07:57:50;;;;;;;45.97;22.90;;;;;;;8.78;89.74;101271.50;4975877;28;20541;-74
2021/03/26 08:00:24;;;;;;;38.73;21.23;;;;;;;8.83;89.30;101262.78;4978857;28;20312;-73
2021/03/26 08:03:05;;;;;;;45.47;22.57;;;;;;;8.94;88.19;101261.84;5001309;28;20206;-74
2021/03/26 08:05:42;;;;;;;45.43;22.70;;;;;;;9.12;87.44;101264.25;4977115;28;20291;-74
2021/03/26 08:08:39;;;;;;;36.43;19.17;;;;;;;9.27;86.70;101261.50;4983067;28;20204;-73
2021/03/26 08:11:17;;;;;;;39.73;19.70;;;;;;;9.35;85.62;101269.19;4978608;28;20226;-73
2021/03/26 08:13:58;;;;;;;36.80;19.50;;;;;;;9.53;83.92;101273.34;4982936;28;20229;-74
2021/03/26 08:16:54;;;;;;;40.70;18.83;;;;;;;9.76;84.34;101277.41;4978317;28;20221;-74
2021/03/26 08:19:30;;;;;;;28.97;17.20;;;;;;;9.90;83.91;101272.03;4971866;28;20232;-72
2021/03/26 08:22:03;;;;;;;34.17;17.53;;;;;;;10.14;84.14;101271.69;4978729;28;20271;-75
2021/03/26 08:24:40;;;;;;;35.17;17.63;;;;;;;10.38;83.47;101286.16;4980222;28;20197;-75
2021/03/26 08:27:20;;;;;;;36.47;18.60;;;;;;;10.52;81.52;101290.31;4980518;28;20217;-72
2021/03/26 08:29:52;;;;;;;32.93;17.97;;;;;;;10.55;81.19;101288.53;4980231;28;20647;-72
2021/03/26 08:32:55;;;;;;;31.00;16.90;;;;;;;10.45;78.92;101291.28;4975368;28;20202;-75
2021/03/26 08:35:34;;;;;;;37.67;18.93;;;;;;;10.37;79.86;101296.63;4980838;28;20222;-73
2021/03/26 08:38:11;;;;;;;32.33;16.80;;;;;;;10.28;79.59;101299.31;4997514;28;20265;-72
2021/03/26 08:40:50;;;;;;;32.97;17.90;;;;;;;10.29;78.50;101307.13;4975859;28;20235;-75
2021/03/26 08:43:17;;;;;;;35.03;17.43;;;;;;;10.30;76.89;101314.03;4975837;28;20221;-74
2021/03/26 08:45:50;;;;;;;30.43;16.07;;;;;;;10.25;76.92;101308.03;4983245;28;20297;-74
2021/03/26 08:48:28;;;;;;;30.77;16.87;;;;;;;10.28;77.81;101307.16;4977882;28;20277;-74
2021/03/26 08:51:08;;;;;;;31.80;15.67;;;;;;;10.30;76.76;101303.63;4979943;28;20249;-74
2021/03/26 08:53:46;;;;;;;32.23;17.27;;;;;;;10.26;76.42;101304.56;4979904;28;20648;-74
2021/03/26 08:56:31;;;;;;;25.97;14.60;;;;;;;10.20;76.28;101312.44;4973115;28;20218;-73
2021/03/26 08:59:13;;;;;;;28.90;16.43;;;;;;;10.33;76.37;101307.97;4977819;28;20781;-73
2021/03/26 09:01:57;;;;;;;29.23;15.57;;;;;;;10.53;76.33;101305.91;4974264;28;20377;-71
2021/03/26 09:04:47;;;;;;;27.37;16.07;;;;;;;10.74;75.56;101311.69;4974370;28;20213;-74
2021/03/26 09:07:27;;;;;;;34.90;17.00;;;;;;;10.98;73.73;101313.91;4978730;28;20673;-74
2021/03/26 09:10:11;;;;;;;27.73;15.50;;;;;;;11.07;74.80;101307.66;4978256;28;20586;-74
2021/03/26 09:12:53;;;;;;;28.93;15.53;;;;;;;11.20;75.20;101304.84;4979702;28;20204;-75
2021/03/26 09:15:39;;;;;;;30.27;16.00;;;;;;;11.22;71.90;101310.88;4979999;28;20653;-75
2021/03/26 09:18:14;;;;;;;31.40;15.47;;;;;;;11.34;70.50;101315.88;4980373;28;20248;-74
2021/03/26 09:20:43;;;;;;;29.43;15.23;;;;;;;11.43;70.86;101307.88;4989962;28;20222;-74
2021/03/26 09:23:40;;;;;;;30.53;15.40;;;;;;;11.53;70.32;101309.44;4981380;28;20707;-73
2021/03/26 09:26:40;;;;;;;28.30;15.40;;;;;;;11.59;69.41;101308.47;4972806;28;20223;-72
2021/03/26 09:29:13;;;;;;;27.40;14.37;;;;;;;11.67;68.80;101310.94;4980724;28;20208;-74
2021/03/26 09:31:44;;;;;;;25.53;14.13;;;;;;;11.72;70.06;101302.09;4977294;28;20618;-75
2021/03/26 09:34:22;;;;;;;29.40;16.80;;;;;;;11.75;70.21;101302.03;4990478;28;20745;-72
2021/03/26 09:37:17;;;;;;;27.27;15.17;;;;;;;11.91;70.95;101294.78;4977419;28;20621;-74
2021/03/26 09:39:49;;;;;;;29.67;15.13;;;;;;;11.96;67.99;101304.28;4975616;28;20236;-74
2021/03/26 09:42:30;;;;;;;45.57;21.40;;;;;;;12.20;68.15;101297.66;4976887;28;20223;-74
2021/03/26 09:45:02;;;;;;;30.23;15.17;;;;;;;12.27;68.51;101297.47;4978493;28;20188;-73
2021/03/26 09:47:35;;;;;;;27.63;15.00;;;;;;;12.32;68.01;101293.00;4978926;28;20228;-72
2021/03/26 09:50:07;;;;;;;33.63;16.63;;;;;;;12.39;66.40;101298.97;4976423;28;20224;-73
2021/03/26 09:52:39;;;;;;;29.90;15.57;;;;;;;12.50;65.93;101293.47;4995939;28;20311;-72
2021/03/26 09:55:08;;;;;;;29.70;14.87;;;;;;;12.58;64.85;101304.63;4979373;28;20217;-73
2021/03/26 09:57:45;;;;;;;24.87;13.87;;;;;;;12.73;65.89;101297.31;4977131;28;20685;-74
2021/03/26 10:00:43;;;;;;;26.40;14.27;;;;;;;12.87;64.02;101309.16;4977784;28;20745;-74
2021/03/26 10:03:18;;;;;;;27.63;15.17;;;;;;;12.85;63.69;101303.09;4979708;28;20274;-73
2021/03/26 10:05:55;;;;;;;25.13;14.80;;;;;;;12.95;62.37;101298.50;4975112;28;20672;-74
2021/03/26 10:08:45;;;;;;;26.67;13.80;;;;;;;13.03;63.50;101296.56;4998699;28;20223;-74
2021/03/26 10:11:20;;;;;;;25.40;13.20;;;;;;;13.11;62.07;101298.13;4975105;28;20453;-72
2021/03/26 10:13:52;;;;;;;26.83;14.27;;;;;;;13.17;61.63;101298.78;4977470;28;20193;-75
2021/03/26 10:16:25;;;;;;;28.10;13.33;;;;;;;13.31;61.11;101292.34;4976495;28;20217;-73
2021/03/26 10:18:54;;;;;;;20.50;12.30;;;;;;;13.42;61.35;101290.31;4982193;28;20193;-75
2021/03/26 10:21:24;;;;;;;26.13;12.63;;;;;;;13.49;59.17;101291.00;4975762;28;20227;-75
2021/03/26 10:23:59;;;;;;;22.30;13.33;;;;;;;13.63;60.34;101289.72;4977333;28;20372;-73
2021/03/26 10:26:30;;;;;;;24.07;13.20;;;;;;;13.66;59.89;101285.31;4966998;28;20197;-75
2021/03/26 10:29:25;;;;;;;24.27;12.93;;;;;;;13.69;61.23;101275.59;4987953;28;20197;-74
2021/03/26 10:31:53;;;;;;;24.60;12.60;;;;;;;13.75;60.19;101274.53;4992647;28;20733;-75
2021/03/26 10:34:31;;;;;;;24.03;12.10;;;;;;;13.81;61.19;101264.75;4974729;28;20197;-74
2021/03/26 10:37:17;;;;;;;26.73;13.13;;;;;;;13.88;60.62;101272.41;4972147;28;20209;-74
2021/03/26 10:39:50;;;;;;;23.13;12.47;;;;;;;13.94;58.82;101267.00;4978630;28;20263;-74
2021/03/26 10:42:29;;;;;;;27.10;13.30;;;;;;;13.92;57.40;101272.28;4975846;28;20516;-75
2021/03/26 10:45:14;;;;;;;22.90;13.13;;;;;;;14.12;57.57;101271.69;4977559;28;20202;-74
2021/03/26 10:47:49;;;;;;;22.93;12.43;;;;;;;14.16;56.46;101262.84;4977058;28;20700;-75
2021/03/26 10:50:37;;;;;;;27.70;13.43;;;;;;;14.18;56.91;101263.63;4977251;28;20222;-74
2021/03/26 10:53:09;;;;;;;22.67;12.90;;;;;;;14.29;57.39;101270.31;4973110;28;20467;-74
2021/03/26 10:55:44;;;;;;;25.17;12.70;;;;;;;14.34;56.76;101264.00;4973407;28;20370;-74
2021/03/26 10:58:20;;;;;;;25.33;12.77;;;;;;;14.33;57.34;101258.81;4977796;28;20211;-75
2021/03/26 11:00:58;;;;;;;27.33;13.20;;;;;;;14.28;55.50;101258.97;4967987;28;20672;-75
2021/03/26 11:03:27;;;;;;;25.57;12.50;;;;;;;14.34;56.02;101258.78;4975047;28;21001;-74
2021/03/26 11:05:56;;;;;;;22.50;12.13;;;;;;;14.30;55.42;101257.16;4973929;28;20210;-73
2021/03/26 11:08:40;;;;;;;26.63;12.73;;;;;;;14.49;54.61;101248.69;4974803;28;20190;-71
2021/03/26 11:11:17;;;;;;;24.30;12.47;;;;;;;14.63;54.92;101253.50;4975186;28;20600;-74
2021/03/26 11:14:06;;;;;;;26.23;13.03;;;;;;;14.56;54.42;101248.44;4987778;28;20197;-73
2021/03/26 11:16:38;;;;;;;24.47;12.50;;;;;;;14.62;55.76;101234.28;4977964;28;20225;-74
2021/03/26 11:19:11;;;;;;;20.33;11.00;;;;;;;14.70;55.46;101236.66;4978210;28;20209;-74
2021/03/26 11:21:43;;;;;;;24.97;12.60;;;;;;;14.77;53.85;101244.28;4977689;28;20222;-74
2021/03/26 11:24:11;;;;;;;23.00;12.23;;;;;;;14.77;53.48;101239.03;4981651;28;20388;-73
2021/03/26 11:26:42;;;;;;;23.73;12.17;;;;;;;14.86;54.32;101223.88;4976337;28;20624;-73
2021/03/26 11:29:20;;;;;;;22.77;12.13;;;;;;;14.92;53.97;101224.50;4982809;28;20204;-74
2021/03/26 11:31:53;;;;;;;25.93;12.93;;;;;;;15.00;53.88;101223.38;4981156;28;20209;-73
2021/03/26 11:34:30;;;;;;;25.57;13.17;;;;;;;15.00;53.58;101221.59;4983371;28;20205;-74
2021/03/26 11:37:04;;;;;;;26.20;13.70;;;;;;;14.89;53.49;101216.75;4978508;28;20219;-73
2021/03/26 11:39:40;;;;;;;24.33;12.03;;;;;;;15.06;52.65;101223.19;4979492;28;20294;-74
2021/03/26 11:42:41;;;;;;;25.37;13.93;;;;;;;15.17;53.48;101217.56;4983494;28;20200;-74
2021/03/26 11:45:21;;;;;;;25.50;13.10;;;;;;;15.30;54.12;101213.53;4981073;28;20680;-73
2021/03/26 11:47:58;;;;;;;23.83;12.83;;;;;;;15.30;54.61;101216.16;4988679;28;20217;-74
2021/03/26 11:50:28;;;;;;;25.60;14.47;;;;;;;15.08;53.72;101218.72;4994513;28;20595;-74
2021/03/26 11:53:30;;;;;;;22.20;13.23;;;;;;;15.04;54.13;101214.47;4979779;28;20220;-75
2021/03/26 11:56:04;;;;;;;26.17;13.83;;;;;;;15.12;53.98;101201.94;4973921;28;20229;-73
2021/03/26 11:58:38;;;;;;;25.53;14.37;;;;;;;15.22;54.88;101198.06;4981685;28;20274;-73
2021/03/26 12:01:08;;;;;;;25.27;13.07;;;;;;;15.36;54.09;101200.19;4974505;28;20316;-75
2021/03/26 12:03:44;;;;;;;27.47;14.13;;;;;;;15.41;53.56;101202.63;4976692;28;20210;-73